createdAt,value
2023-01-07T00:00:53.316Z,96750.91
2023-01-07T00:03:21.081Z,96740.81
2023-01-07T00:05:48.607Z,96741.66
2023-01-07T00:08:16.091Z,96745.34
2023-01-07T00:10:44.930Z,96738.41
2023-01-07T00:13:12.406Z,96743.81
2023-01-07T00:15:39.951Z,96748.22
2023-01-07T00:18:07.432Z,96743.44
2023-01-07T00:20:34.923Z,96741.91
2023-01-07T00:23:02.473Z,96743.03
2023-01-07T00:25:30.088Z,96744.09
2023-01-07T00:27:58.937Z,96730.75
2023-01-07T00:30:26.428Z,96731.19
2023-01-07T00:33:04.823Z,96733.41
2023-01-07T00:35:33.214Z,96723.69
2023-01-07T00:38:01.045Z,96725.16
2023-01-07T00:40:28.539Z,96724.56
2023-01-07T00:43:01.159Z,96714.16
2023-01-07T00:45:31.814Z,96716.41
2023-01-07T00:48:00.367Z,96714.50
2023-01-07T00:50:32.189Z,96722.75
2023-01-07T00:52:59.978Z,96710.53
2023-01-07T00:55:27.892Z,96708.31
2023-01-07T00:57:55.891Z,96704.22
2023-01-07T01:00:25.600Z,96710.84
2023-01-07T01:02:54.821Z,96706.31
2023-01-07T01:05:22.903Z,96711.28
2023-01-07T01:07:50.408Z,96716.75
2023-01-07T01:10:20.659Z,96717.31
2023-01-07T01:12:49.333Z,96714.72
2023-01-07T01:15:17.785Z,96707.59
2023-01-07T01:17:45.396Z,96701.47
2023-01-07T01:20:15.987Z,96703.56
2023-01-07T01:22:43.768Z,96705.06
2023-01-07T01:25:11.977Z,96712.44
2023-01-07T01:27:39.567Z,96710.28
2023-01-07T01:30:08.808Z,96709.06
2023-01-07T01:32:36.324Z,96713.16
2023-01-07T01:35:03.858Z,96711.78
2023-01-07T01:37:32.664Z,96706.19
2023-01-07T01:40:03.840Z,96705.00
2023-01-07T01:42:32.117Z,96705.03
2023-01-07T01:45:00.974Z,96703.41
2023-01-07T01:47:35.189Z,96710.09
2023-01-07T01:50:09.078Z,96707.09
2023-01-07T01:52:43.705Z,96707.44
2023-01-07T01:55:16.159Z,96704.13
2023-01-07T01:57:44.797Z,96691.16
2023-01-07T02:00:17.267Z,96698.72
2023-01-07T02:02:49.848Z,96695.91
2023-01-07T02:05:17.928Z,96701.06
2023-01-07T02:07:46.760Z,96691.13
2023-01-07T02:10:17.360Z,96694.69
2023-01-07T02:13:12.312Z,96690.22
2023-01-07T02:15:52.736Z,96694.41
2023-01-07T02:18:36.542Z,96686.09
2023-01-07T02:21:22.969Z,96689.13
2023-01-07T02:24:23.999Z,96687.09
2023-01-07T02:27:22.981Z,96685.59
2023-01-07T02:30:26.222Z,96673.38
2023-01-07T02:33:09.732Z,96676.91
2023-01-07T02:36:00.208Z,96665.19
2023-01-07T02:38:37.047Z,96663.59
2023-01-07T02:41:15.059Z,96661.97
2023-01-07T02:43:53.660Z,96664.72
2023-01-07T02:46:27.968Z,96662.81
2023-01-07T02:49:00.351Z,96660.97
2023-01-07T02:51:33.756Z,96654.94
2023-01-07T02:54:02.124Z,96650.00
2023-01-07T02:56:43.156Z,96652.69
2023-01-07T02:59:55.191Z,96650.34
2023-01-07T03:02:40.355Z,96652.03
2023-01-07T03:05:20.334Z,96650.88
2023-01-07T03:08:01.525Z,96652.03
2023-01-07T03:10:36.764Z,96642.44
2023-01-07T03:13:07.368Z,96641.03
2023-01-07T03:15:40.912Z,96636.56
2023-01-07T03:18:11.468Z,96642.38
2023-01-07T03:20:45.262Z,96644.50
2023-01-07T03:23:16.091Z,96629.47
2023-01-07T03:25:47.367Z,96629.41
2023-01-07T03:28:18.727Z,96635.09
2023-01-07T03:30:48.833Z,96630.94
2023-01-07T03:33:22.163Z,96618.06
2023-01-07T03:35:54.040Z,96622.25
2023-01-07T03:38:24.038Z,96623.47
2023-01-07T03:40:52.792Z,96615.78
2023-01-07T03:43:22.009Z,96614.72
2023-01-07T03:45:51.188Z,96610.50
2023-01-07T03:48:18.688Z,96609.53
2023-01-07T03:50:46.225Z,96611.84
2023-01-07T03:53:15.067Z,96604.34
2023-01-07T03:55:42.569Z,96603.97
2023-01-07T03:58:10.085Z,96604.91
2023-01-07T04:00:37.561Z,96589.84
2023-01-07T04:03:05.079Z,96594.75
2023-01-07T04:05:32.567Z,96592.25
2023-01-07T04:08:00.091Z,96595.84
2023-01-07T04:10:28.916Z,96591.88
2023-01-07T04:12:56.613Z,96595.69
2023-01-07T04:15:24.100Z,96588.41
2023-01-07T04:17:51.572Z,96583.91
2023-01-07T04:20:19.061Z,96581.47
2023-01-07T04:22:46.543Z,96565.34
2023-01-07T04:25:14.060Z,96569.00
2023-01-07T04:27:42.935Z,96573.56
2023-01-07T04:30:11.347Z,96575.97
2023-01-07T04:32:38.830Z,96569.75
2023-01-07T04:35:06.625Z,96572.56
2023-01-07T04:37:34.121Z,96566.19
2023-01-07T04:40:01.666Z,96565.34
2023-01-07T04:42:29.160Z,96560.25
2023-01-07T04:44:57.991Z,96557.28
2023-01-07T04:47:25.501Z,96559.28
2023-01-07T04:49:52.991Z,96561.06
2023-01-07T04:52:20.502Z,96556.94
2023-01-07T04:54:48.040Z,96560.03
2023-01-07T04:57:15.591Z,96557.19
2023-01-07T04:59:43.118Z,96555.81
2023-01-07T05:02:12.028Z,96553.31
2023-01-07T05:04:39.596Z,96543.97
2023-01-07T05:07:07.106Z,96543.97
2023-01-07T05:09:34.721Z,96542.06
2023-01-07T05:12:02.426Z,96537.00
2023-01-07T05:14:29.922Z,96535.22
2023-01-07T05:16:57.461Z,96536.91
2023-01-07T05:19:26.341Z,96537.81
2023-01-07T05:21:54.230Z,96537.25
2023-01-07T05:24:22.011Z,96534.63
2023-01-07T05:26:49.518Z,96539.31
2023-01-07T05:29:17.013Z,96534.09
2023-01-07T05:31:44.584Z,96523.97
2023-01-07T05:34:12.115Z,96522.19
2023-01-07T05:36:40.924Z,96517.03
2023-01-07T05:39:08.478Z,96523.06
2023-01-07T05:41:36.029Z,96521.44
2023-01-07T05:44:03.568Z,96517.50
2023-01-07T05:46:31.113Z,96513.53
2023-01-07T05:48:58.659Z,96507.56
2023-01-07T05:51:26.198Z,96501.28
2023-01-07T05:53:55.404Z,96505.28
2023-01-07T05:56:22.983Z,96500.75
2023-01-07T05:58:50.453Z,96501.59
2023-01-07T06:01:18.046Z,96502.94
2023-01-07T06:03:45.679Z,96504.28
2023-01-07T06:06:13.246Z,96500.16
2023-01-07T06:08:40.929Z,96498.97
2023-01-07T06:11:10.363Z,96501.00
2023-01-07T06:13:37.875Z,96495.34
2023-01-07T06:16:07.891Z,96500.00
2023-01-07T06:18:35.794Z,96494.50
2023-01-07T06:21:03.677Z,96498.84
2023-01-07T06:23:31.849Z,96496.00
2023-01-07T06:25:59.529Z,96495.50
2023-01-07T06:28:28.597Z,96493.03
2023-01-07T06:30:56.138Z,96484.72
2023-01-07T06:33:23.921Z,96486.03
2023-01-07T06:35:51.448Z,96482.72
2023-01-07T06:38:18.963Z,96484.06
2023-01-07T06:40:46.453Z,96486.69
2023-01-07T06:43:14.020Z,96482.31
2023-01-07T06:45:42.837Z,96478.53
2023-01-07T06:48:10.351Z,96478.81
2023-01-07T06:50:37.838Z,96469.41
2023-01-07T06:53:05.556Z,96467.09
2023-01-07T06:55:33.049Z,96466.06
2023-01-07T06:58:00.521Z,96471.13
2023-01-07T07:00:28.237Z,96469.53
2023-01-07T07:02:57.473Z,96464.19
2023-01-07T07:05:25.039Z,96463.19
2023-01-07T07:07:52.526Z,96469.47
2023-01-07T07:10:20.050Z,96469.69
2023-01-07T07:12:47.523Z,96472.25
2023-01-07T07:15:15.033Z,96465.25
2023-01-07T07:17:42.508Z,96471.28
2023-01-07T07:20:12.623Z,96471.53
2023-01-07T07:22:45.756Z,96470.44
2023-01-07T07:25:13.612Z,96463.06
2023-01-07T07:27:41.140Z,96470.91
2023-01-07T07:30:09.721Z,96460.81
2023-01-07T07:32:37.205Z,96470.06
2023-01-07T07:35:05.116Z,96468.53
2023-01-07T07:37:33.967Z,96472.97
2023-01-07T07:40:01.481Z,96466.31
2023-01-07T07:42:28.975Z,96457.34
2023-01-07T07:44:56.451Z,96458.75
2023-01-07T07:47:23.957Z,96453.06
2023-01-07T07:49:51.471Z,96451.47
2023-01-07T07:52:19.230Z,96454.50
2023-01-07T07:54:48.052Z,96446.97
2023-01-07T07:57:15.553Z,96454.22
2023-01-07T07:59:43.047Z,96441.78
2023-01-07T08:02:13.932Z,96443.97
2023-01-07T08:04:41.656Z,96438.78
2023-01-07T08:07:10.434Z,96440.19
2023-01-07T08:09:37.944Z,96434.50
2023-01-07T08:12:07.246Z,96438.03
2023-01-07T08:14:34.878Z,96431.91
2023-01-07T08:17:02.347Z,96430.69
2023-01-07T08:19:29.829Z,96432.56
2023-01-07T08:21:57.299Z,96436.44
2023-01-07T08:24:25.222Z,96429.75
2023-01-07T08:26:55.387Z,96425.50
2023-01-07T08:29:24.664Z,96423.91
2023-01-07T08:31:52.989Z,96424.16
2023-01-07T08:34:20.519Z,96421.53
2023-01-07T08:36:48.035Z,96420.09
2023-01-07T08:39:15.581Z,96415.06
2023-01-07T08:41:43.135Z,96412.09
2023-01-07T08:44:10.626Z,96404.81
2023-01-07T08:46:39.721Z,96408.50
2023-01-07T08:49:07.240Z,96408.66
2023-01-07T08:51:34.716Z,96406.78
2023-01-07T08:54:02.229Z,96404.88
2023-01-07T08:56:29.742Z,96406.63
2023-01-07T08:58:57.230Z,96401.00
2023-01-07T09:01:24.844Z,96398.81
2023-01-07T09:03:53.747Z,96400.94
2023-01-07T09:06:21.278Z,96400.63
2023-01-07T09:08:48.739Z,96387.66
2023-01-07T09:11:16.339Z,96386.66
2023-01-07T09:13:43.846Z,96376.94
2023-01-07T09:16:11.390Z,96389.00
2023-01-07T09:18:38.919Z,96388.31
2023-01-07T09:21:07.806Z,96387.00
2023-01-07T09:23:35.289Z,96376.75
2023-01-07T09:26:03.166Z,96380.13
2023-01-07T09:28:30.869Z,96370.84
2023-01-07T09:30:58.433Z,96377.50
2023-01-07T09:33:25.920Z,96377.78
2023-01-07T09:35:53.410Z,96377.44
2023-01-07T09:38:22.253Z,96366.31
2023-01-07T09:40:50.730Z,96362.50
2023-01-07T09:43:26.134Z,96370.09
2023-01-07T09:46:14.067Z,96368.28
2023-01-07T09:48:44.899Z,96364.69
2023-01-07T09:51:18.665Z,96358.69
2023-01-07T09:53:50.896Z,96360.22
2023-01-07T09:56:23.981Z,96359.56
2023-01-07T09:58:52.305Z,96361.53
2023-01-07T10:01:27.035Z,96352.78
2023-01-07T10:04:07.850Z,96342.94
2023-01-07T10:06:44.347Z,96336.56
2023-01-07T10:09:26.231Z,96346.88
2023-01-07T10:12:02.956Z,96336.31
2023-01-07T10:14:52.211Z,96326.56
2023-01-07T10:17:30.692Z,96319.41
2023-01-07T10:20:03.587Z,96314.34
2023-01-07T10:22:35.987Z,96310.91
2023-01-07T10:25:14.834Z,96307.47
2023-01-07T10:27:46.217Z,96316.22
2023-01-07T10:30:16.837Z,96309.78
2023-01-07T10:32:47.311Z,96306.19
2023-01-07T10:35:19.167Z,96304.75
2023-01-07T10:37:47.097Z,96306.09
2023-01-07T10:40:32.278Z,96303.97
2023-01-07T10:43:03.711Z,96297.56
2023-01-07T10:45:44.657Z,96282.03
2023-01-07T10:48:49.395Z,96292.09
2023-01-07T10:51:51.547Z,96289.22
2023-01-07T10:54:36.830Z,96280.38
2023-01-07T10:57:11.133Z,96272.81
2023-01-07T10:59:39.117Z,96275.22
2023-01-07T11:02:17.766Z,96269.84
2023-01-07T11:04:45.680Z,96270.63
2023-01-07T11:07:23.023Z,96264.28
2023-01-07T11:09:53.251Z,96268.59
2023-01-07T11:12:28.478Z,96256.81
2023-01-07T11:14:59.638Z,96244.97
2023-01-07T11:17:35.167Z,96239.22
2023-01-07T11:20:03.212Z,96233.91
2023-01-07T11:22:33.672Z,96236.13
2023-01-07T11:25:03.128Z,96229.03
2023-01-07T11:27:35.079Z,96224.91
2023-01-07T11:30:05.159Z,96223.03
2023-01-07T11:32:35.582Z,96223.53
2023-01-07T11:35:05.290Z,96214.00
2023-01-07T11:37:35.852Z,96207.56
2023-01-07T11:40:17.357Z,96205.66
2023-01-07T11:42:50.135Z,96200.91
2023-01-07T11:45:19.832Z,96203.19
2023-01-07T11:47:50.826Z,96190.44
2023-01-07T11:50:23.779Z,96181.97
2023-01-07T11:53:02.864Z,96189.09
2023-01-07T11:55:30.774Z,96179.16
2023-01-07T11:58:29.765Z,96174.72
2023-01-07T12:00:47.410Z,96164.19
2023-01-07T12:03:15.262Z,96157.25
2023-01-07T12:05:45.334Z,96157.09
2023-01-07T12:08:20.307Z,96156.38
2023-01-07T12:10:54.495Z,96151.56
2023-01-07T12:13:26.038Z,96150.97
2023-01-07T12:15:57.460Z,96143.72
2023-01-07T12:18:45.788Z,96143.38
2023-01-07T12:21:47.847Z,96141.13
2023-01-07T12:24:33.074Z,96136.09
2023-01-07T12:27:07.693Z,96132.22
2023-01-07T12:29:49.885Z,96134.63
2023-01-07T12:32:37.325Z,96136.25
2023-01-07T12:35:14.613Z,96132.22
2023-01-07T12:37:46.055Z,96130.09
2023-01-07T12:40:24.294Z,96122.47
2023-01-07T12:42:56.387Z,96119.25
2023-01-07T12:45:30.114Z,96119.69
2023-01-07T12:48:03.286Z,96109.13
2023-01-07T12:50:38.518Z,96098.88
2023-01-07T12:53:13.201Z,96095.31
2023-01-07T12:55:45.240Z,96095.03
2023-01-07T12:58:19.691Z,96096.75
2023-01-07T13:00:56.209Z,96088.56
2023-01-07T13:03:35.819Z,96081.41
2023-01-07T13:06:11.968Z,96083.78
2023-01-07T13:08:47.798Z,96078.63
2023-01-07T13:11:42.089Z,96084.25
2023-01-07T13:14:19.673Z,96078.38
2023-01-07T13:16:49.227Z,96087.06
2023-01-07T13:19:16.752Z,96087.81
2023-01-07T13:21:46.705Z,96081.34
2023-01-07T13:24:54.586Z,96076.69
2023-01-07T13:27:25.354Z,96080.25
2023-01-07T13:30:05.646Z,96074.50
2023-01-07T13:32:46.214Z,96083.44
2023-01-07T13:35:55.123Z,96067.50
2023-01-07T13:38:45.960Z,96069.09
2023-01-07T13:41:42.129Z,96070.84
2023-01-07T13:44:50.296Z,96069.81
2023-01-07T13:47:21.937Z,96065.19
2023-01-07T13:49:57.815Z,96055.50
2023-01-07T13:52:28.834Z,96069.88
2023-01-07T13:55:00.333Z,96063.56
2023-01-07T13:57:44.699Z,96060.59
2023-01-07T14:00:48.376Z,96066.53
2023-01-07T14:03:40.164Z,96059.34
2023-01-07T14:06:38.710Z,96051.63
2023-01-07T14:09:38.951Z,96056.31
2023-01-07T14:12:42.792Z,96049.88
2023-01-07T14:15:26.435Z,96053.78
2023-01-07T14:18:07.506Z,96063.91
2023-01-07T14:20:44.393Z,96057.22
2023-01-07T14:23:23.355Z,96054.31
2023-01-07T14:26:07.465Z,96063.19
2023-01-07T14:29:10.790Z,96056.44
2023-01-07T14:31:38.501Z,96056.38
2023-01-07T14:34:08.897Z,96050.69
2023-01-07T14:37:15.378Z,96049.38
2023-01-07T14:39:44.866Z,96053.38
2023-01-07T14:42:49.320Z,96049.47
2023-01-07T14:45:54.052Z,96054.56
2023-01-07T14:48:33.626Z,96051.38
2023-01-07T14:51:33.406Z,96054.16
2023-01-07T14:54:39.217Z,96048.53
2023-01-07T14:57:12.217Z,96053.47
2023-01-07T15:00:05.387Z,96055.16
2023-01-07T15:03:03.183Z,96043.81
2023-01-07T15:05:52.990Z,96045.16
2023-01-07T15:08:40.603Z,96032.53
2023-01-07T15:11:30.566Z,96035.69
2023-01-07T15:14:18.964Z,96038.88
2023-01-07T15:16:51.306Z,96034.22
2023-01-07T15:19:18.980Z,96032.22
2023-01-07T15:21:59.480Z,96033.59
2023-01-07T15:24:36.955Z,96031.31
2023-01-07T15:27:14.454Z,96033.53
2023-01-07T15:29:52.952Z,96028.50
2023-01-07T15:32:33.463Z,96031.97
2023-01-07T15:35:01.928Z,96022.41
2023-01-07T15:37:29.438Z,96032.25
2023-01-07T15:39:58.555Z,96036.81
2023-01-07T15:42:29.024Z,96035.00
2023-01-07T15:44:58.263Z,96038.97
2023-01-07T15:47:37.425Z,96042.06
2023-01-07T15:50:29.125Z,96042.25
2023-01-07T15:52:59.641Z,96044.22
2023-01-07T15:55:29.430Z,96050.50
2023-01-07T15:58:03.232Z,96043.19
2023-01-07T16:00:30.838Z,96046.50
2023-01-07T16:03:02.432Z,96045.13
2023-01-07T16:05:30.196Z,96046.63
2023-01-07T16:07:59.194Z,96045.13
2023-01-07T16:10:29.491Z,96041.34
2023-01-07T16:12:58.651Z,96038.59
2023-01-07T16:15:29.734Z,96040.50
2023-01-07T16:18:00.361Z,96040.84
2023-01-07T16:20:30.100Z,96035.53
2023-01-07T16:23:15.973Z,96031.38
2023-01-07T16:25:46.836Z,96031.41
2023-01-07T16:28:18.444Z,96028.88
2023-01-07T16:30:47.826Z,96027.13
2023-01-07T16:33:19.883Z,96019.69
2023-01-07T16:35:49.224Z,96009.81
2023-01-07T16:38:19.981Z,96006.41
2023-01-07T16:40:48.425Z,96010.31
2023-01-07T16:43:43.662Z,96018.63
2023-01-07T16:46:21.814Z,96018.91
2023-01-07T16:49:19.688Z,96015.63
2023-01-07T16:51:50.895Z,96020.56
2023-01-07T16:54:33.232Z,96023.69
2023-01-07T16:57:02.394Z,96024.22
2023-01-07T16:59:32.568Z,96021.06
2023-01-07T17:02:03.618Z,96025.50
2023-01-07T17:04:32.534Z,96023.53
2023-01-07T17:07:02.401Z,96013.97
2023-01-07T17:09:35.324Z,96022.25
2023-01-07T17:12:03.980Z,96010.53
2023-01-07T17:14:50.749Z,96014.31
2023-01-07T17:17:33.717Z,96018.41
2023-01-07T17:20:18.997Z,96018.56
2023-01-07T17:22:47.101Z,96014.56
2023-01-07T17:25:15.729Z,96023.91
2023-01-07T17:27:47.472Z,96019.44
2023-01-07T17:30:17.993Z,96018.75
2023-01-07T17:32:46.586Z,96016.81
2023-01-07T17:35:19.203Z,96020.72
2023-01-07T17:37:46.909Z,96023.16
2023-01-07T17:40:15.311Z,96030.84
2023-01-07T17:43:01.557Z,96021.28
2023-01-07T17:45:29.295Z,96030.63
2023-01-07T17:47:58.708Z,96031.38
2023-01-07T17:50:31.524Z,96040.13
2023-01-07T17:52:59.016Z,96037.34
2023-01-07T17:55:28.983Z,96034.78
2023-01-07T17:57:56.544Z,96033.13
2023-01-07T18:00:26.435Z,96036.94
2023-01-07T18:02:54.027Z,96033.28
2023-01-07T18:05:23.566Z,96027.00
2023-01-07T18:07:53.491Z,96019.00
2023-01-07T18:10:25.646Z,96018.66
2023-01-07T18:12:52.201Z,96011.75
2023-01-07T18:15:23.404Z,96015.84
2023-01-07T18:17:51.268Z,96008.81
2023-01-07T18:20:23.530Z,96008.59
2023-01-07T18:22:52.438Z,96008.22
2023-01-07T18:25:21.847Z,96003.09
2023-01-07T18:27:52.580Z,96014.72
2023-01-07T18:30:21.767Z,96013.16
2023-01-07T18:32:51.197Z,96013.84
2023-01-07T18:35:19.454Z,96020.47
2023-01-07T18:37:49.543Z,96017.66
2023-01-07T18:40:18.853Z,96018.41
2023-01-07T18:42:46.434Z,96017.38
2023-01-07T18:45:14.391Z,96010.25
2023-01-07T18:47:42.806Z,96009.09
2023-01-07T18:50:10.582Z,96006.69
2023-01-07T18:52:38.913Z,96013.53
2023-01-07T18:55:07.584Z,96009.69
2023-01-07T18:57:36.515Z,96007.03
2023-01-07T19:00:04.811Z,96011.22
2023-01-07T19:02:32.341Z,96015.03
2023-01-07T19:04:59.814Z,96019.78
2023-01-07T19:07:27.319Z,96016.19
2023-01-07T19:09:54.774Z,96023.97
2023-01-07T19:12:22.322Z,96031.44
2023-01-07T19:14:51.119Z,96022.09
2023-01-07T19:17:18.624Z,96018.44
2023-01-07T19:19:48.733Z,96014.28
2023-01-07T19:22:17.059Z,96021.44
2023-01-07T19:24:44.623Z,96024.50
2023-01-07T19:27:12.474Z,96019.63
2023-01-07T19:29:40.286Z,96011.88
2023-01-07T19:32:09.121Z,96021.78
2023-01-07T19:34:36.681Z,96028.72
2023-01-07T19:37:04.168Z,96039.47
2023-01-07T19:39:31.717Z,96027.59
2023-01-07T19:41:59.261Z,96032.34
2023-01-07T19:44:26.815Z,96045.34
2023-01-07T19:46:54.320Z,96041.38
2023-01-07T19:49:23.201Z,96046.19
2023-01-07T19:51:52.462Z,96037.75
2023-01-07T19:54:20.086Z,96032.81
2023-01-07T19:56:47.624Z,96020.16
2023-01-07T19:59:15.113Z,96019.63
2023-01-07T20:01:43.539Z,96021.28
2023-01-07T20:04:11.157Z,96012.44
2023-01-07T20:06:40.038Z,96011.41
2023-01-07T20:09:10.773Z,96007.91
2023-01-07T20:11:38.553Z,96002.81
2023-01-07T20:14:07.540Z,96009.56
2023-01-07T20:16:36.741Z,96003.75
2023-01-07T20:19:05.308Z,96007.53
2023-01-07T20:21:33.858Z,96005.22
2023-01-07T20:24:04.271Z,96001.84
2023-01-07T20:26:33.399Z,96003.50
2023-01-07T20:29:01.917Z,95992.13
2023-01-07T20:31:31.170Z,95998.00
2023-01-07T20:33:58.995Z,96001.75
2023-01-07T20:36:28.625Z,95997.63
2023-01-07T20:38:56.615Z,96003.53
2023-01-07T20:41:27.911Z,96002.16
2023-01-07T20:43:57.670Z,96002.72
2023-01-07T20:46:26.031Z,96001.34
2023-01-07T20:48:53.725Z,95999.00
2023-01-07T20:51:21.781Z,95990.28
2023-01-07T20:53:49.402Z,95971.69
2023-01-07T20:56:18.713Z,95967.00
2023-01-07T20:58:48.814Z,95967.53
2023-01-07T21:01:22.491Z,95968.50
2023-01-07T21:03:50.417Z,95963.38
2023-01-07T21:06:19.834Z,95961.13
2023-01-07T21:08:48.602Z,95966.88
2023-01-07T21:11:18.384Z,95952.59
2023-01-07T21:13:47.892Z,95946.28
2023-01-07T21:16:16.271Z,95947.16
2023-01-07T21:18:43.952Z,95949.06
2023-01-07T21:21:13.931Z,95949.19
2023-01-07T21:23:41.762Z,95956.00
2023-01-07T21:26:10.631Z,95954.69
2023-01-07T21:28:38.133Z,95943.50
2023-01-07T21:31:11.327Z,95949.50
2023-01-07T21:33:40.241Z,95941.69
2023-01-07T21:36:09.066Z,95946.56
2023-01-07T21:38:36.819Z,95943.41
2023-01-07T21:41:08.541Z,95944.84
2023-01-07T21:43:36.194Z,95938.19
2023-01-07T21:46:04.707Z,95945.94
2023-01-07T21:48:34.156Z,95947.31
2023-01-07T21:51:03.736Z,95941.19
2023-01-07T21:53:31.951Z,95942.53
2023-01-07T21:56:05.245Z,95935.72
2023-01-07T21:58:32.800Z,95944.69
2023-01-07T22:01:00.352Z,95939.81
2023-01-07T22:03:29.429Z,95938.03
2023-01-07T22:05:59.648Z,95931.09
2023-01-07T22:08:27.637Z,95946.19
2023-01-07T22:10:55.143Z,95939.84
2023-01-07T22:13:23.155Z,95936.47
2023-01-07T22:15:51.057Z,95934.56
2023-01-07T22:18:18.833Z,95928.88
2023-01-07T22:20:46.308Z,95925.97
2023-01-07T22:23:17.753Z,95919.97
2023-01-07T22:25:45.253Z,95923.50
2023-01-07T22:28:13.475Z,95928.44
2023-01-07T22:30:44.298Z,95938.41
2023-01-07T22:33:11.829Z,95929.72
2023-01-07T22:35:39.382Z,95942.22
2023-01-07T22:38:07.396Z,95941.34
2023-01-07T22:40:37.550Z,95938.94
2023-01-07T22:43:07.818Z,95938.69
2023-01-07T22:45:42.906Z,95946.47
2023-01-07T22:48:14.085Z,95942.31
2023-01-07T22:50:42.253Z,95934.66
2023-01-07T22:53:11.230Z,95942.31
2023-01-07T22:55:41.528Z,95932.63
2023-01-07T22:58:09.287Z,95945.94
2023-01-07T23:00:40.811Z,95936.47
2023-01-07T23:03:08.502Z,95929.28
2023-01-07T23:05:37.791Z,95934.25
2023-01-07T23:08:05.901Z,95932.97
2023-01-07T23:10:33.395Z,95922.69
2023-01-07T23:13:02.227Z,95918.84
2023-01-07T23:15:29.779Z,95919.28
2023-01-07T23:17:57.305Z,95923.28
2023-01-07T23:20:24.793Z,95918.97
2023-01-07T23:22:52.385Z,95913.56
2023-01-07T23:25:19.930Z,95902.84
2023-01-07T23:27:49.326Z,95905.34
2023-01-07T23:30:18.542Z,95907.28
2023-01-07T23:32:46.062Z,95900.84
2023-01-07T23:35:13.986Z,95892.59
2023-01-07T23:37:41.936Z,95884.69
2023-01-07T23:40:10.787Z,95890.25
2023-01-07T23:42:38.268Z,95882.47
2023-01-07T23:45:07.243Z,95875.84
2023-01-07T23:47:36.096Z,95869.47
2023-01-07T23:50:04.005Z,95869.31
2023-01-07T23:52:31.541Z,95860.31
2023-01-07T23:54:59.010Z,95855.63
2023-01-07T23:57:26.648Z,95855.06
2023-01-07T23:59:54.157Z,95853.19
